createdAt,value
2019-06-01T00:00:56.950Z,14.12
2019-06-01T00:03:25.837Z,14.09
2019-06-01T00:05:54.026Z,14.11
2019-06-01T00:08:22.231Z,14.11
2019-06-01T00:10:50.431Z,14.12
2019-06-01T00:13:18.641Z,14.01
2019-06-01T00:15:48.176Z,14.00
2019-06-01T00:18:16.534Z,14.01
2019-06-01T00:20:44.726Z,13.98
2019-06-01T00:23:12.941Z,13.93
2019-06-01T00:25:42.611Z,13.90
2019-06-01T00:28:10.891Z,13.93
2019-06-01T00:30:39.086Z,14.00
2019-06-01T00:33:07.294Z,14.10
2019-06-01T00:35:35.495Z,14.17
2019-06-01T00:38:04.285Z,14.10
2019-06-01T00:40:32.493Z,13.99
2019-06-01T00:43:00.702Z,13.93
2019-06-01T00:45:28.907Z,13.87
2019-06-01T00:47:57.117Z,13.81
2019-06-01T00:50:25.336Z,13.81
2019-06-01T00:52:53.540Z,13.96
2019-06-01T00:55:21.772Z,14.02
2019-06-01T00:57:49.971Z,13.91
2019-06-01T01:00:18.751Z,13.92
2019-06-01T01:02:48.055Z,13.90
2019-06-01T01:05:19.356Z,13.90
2019-06-01T01:07:48.856Z,13.78
2019-06-01T01:10:17.147Z,13.75
2019-06-01T01:13:05.492Z,13.67
2019-06-01T01:15:34.235Z,13.65
2019-06-01T01:18:02.454Z,13.73
2019-06-01T01:20:30.647Z,13.80
2019-06-01T01:22:58.838Z,13.79
2019-06-01T01:25:27.097Z,13.87
2019-06-01T01:27:55.263Z,13.93
2019-06-01T01:30:23.474Z,13.82
2019-06-01T01:32:51.895Z,13.79
2019-06-01T01:35:20.897Z,13.84
2019-06-01T01:37:50.017Z,13.77
2019-06-01T01:40:18.294Z,13.77
2019-06-01T01:42:46.767Z,13.63
2019-06-01T01:45:16.261Z,13.66
2019-06-01T01:47:44.462Z,13.67
2019-06-01T01:50:14.301Z,13.71
2019-06-01T01:52:42.847Z,13.71
2019-06-01T01:55:11.054Z,13.81
2019-06-01T01:57:42.253Z,13.83
2019-06-01T02:00:12.474Z,13.92
2019-06-01T02:02:40.674Z,13.81
2019-06-01T02:05:08.884Z,13.78
2019-06-01T02:07:37.884Z,13.63
2019-06-01T02:10:07.216Z,13.55
2019-06-01T02:12:35.445Z,13.53
2019-06-01T02:15:05.594Z,13.53
2019-06-01T02:17:33.841Z,13.51
2019-06-01T02:20:02.657Z,13.48
2019-06-01T02:22:30.913Z,13.36
2019-06-01T02:24:59.879Z,13.26
2019-06-01T02:27:28.105Z,13.18
2019-06-01T02:29:57.156Z,13.19
2019-06-01T02:32:25.399Z,13.14
2019-06-01T02:34:54.256Z,13.13
2019-06-01T02:37:22.869Z,13.11
2019-06-01T02:39:51.082Z,13.16
2019-06-01T02:42:19.285Z,13.14
2019-06-01T02:44:47.494Z,13.14
2019-06-01T02:47:15.732Z,12.97
2019-06-01T02:49:44.028Z,12.94
2019-06-01T02:52:12.233Z,13.02
2019-06-01T02:54:40.516Z,13.04
2019-06-01T02:57:08.714Z,13.02
2019-06-01T02:59:36.927Z,13.25
2019-06-01T03:02:10.646Z,13.27
2019-06-01T03:04:35.846Z,13.32
2019-06-01T03:07:06.739Z,13.28
2019-06-01T03:09:35.573Z,13.22
2019-06-01T03:12:04.362Z,13.14
2019-06-01T03:14:34.349Z,12.97
2019-06-01T03:17:03.794Z,12.85
2019-06-01T03:19:32.249Z,12.94
2019-06-01T03:22:03.743Z,12.99
2019-06-01T03:24:34.795Z,13.06
2019-06-01T03:27:04.546Z,13.07
2019-06-01T03:29:33.877Z,12.99
2019-06-01T03:32:26.185Z,12.98
2019-06-01T03:34:32.586Z,13.04
2019-06-01T03:37:01.260Z,12.91
2019-06-01T03:39:29.475Z,12.89
2019-06-01T03:41:57.698Z,12.89
2019-06-01T03:44:25.941Z,12.97
2019-06-01T03:46:54.134Z,13.05
2019-06-01T03:49:22.333Z,13.03
2019-06-01T03:51:50.570Z,13.02
2019-06-01T03:54:18.837Z,13.18
2019-06-01T03:56:47.013Z,13.22
2019-06-01T03:59:15.218Z,13.26
2019-06-01T04:01:43.442Z,13.31
2019-06-01T04:04:11.645Z,13.40
2019-06-01T04:06:39.886Z,13.46
2019-06-01T04:09:08.091Z,13.63
2019-06-01T04:11:36.302Z,13.76
2019-06-01T04:14:05.641Z,13.84
2019-06-01T04:16:33.925Z,13.94
2019-06-01T04:19:02.137Z,14.08
2019-06-01T04:21:30.371Z,14.20
2019-06-01T04:23:58.569Z,14.31
2019-06-01T04:26:27.550Z,14.30
2019-06-01T04:28:55.753Z,14.37
2019-06-01T04:31:23.964Z,14.46
2019-06-01T04:33:52.162Z,14.52
2019-06-01T04:36:20.375Z,14.57
2019-06-01T04:38:48.574Z,14.85
2019-06-01T04:41:18.133Z,14.99
2019-06-01T04:43:46.337Z,14.86
2019-06-01T04:46:15.115Z,14.96
2019-06-01T04:48:43.320Z,15.03
2019-06-01T04:51:12.165Z,15.11
2019-06-01T04:53:41.537Z,15.30
2019-06-01T04:56:11.042Z,15.44
2019-06-01T04:58:39.338Z,15.51
2019-06-01T05:01:08.994Z,15.60
2019-06-01T05:03:37.695Z,15.78
2019-06-01T05:06:07.151Z,15.95
2019-06-01T05:08:35.488Z,16.16
2019-06-01T05:11:05.761Z,16.50
2019-06-01T05:13:33.748Z,16.50
2019-06-01T05:16:01.962Z,16.75
2019-06-01T05:18:30.174Z,16.93
2019-06-01T05:20:58.392Z,17.07
2019-06-01T05:23:26.599Z,17.18
2019-06-01T05:25:57.151Z,17.21
2019-06-01T05:28:25.361Z,17.18
2019-06-01T05:30:53.577Z,17.21
2019-06-01T05:33:36.500Z,17.27
2019-06-01T05:35:52.486Z,17.32
2019-06-01T05:38:20.696Z,17.32
2019-06-01T05:40:48.913Z,17.24
2019-06-01T05:43:19.918Z,17.17
2019-06-01T05:45:47.619Z,17.30
2019-06-01T05:48:23.173Z,17.35
2019-06-01T05:50:46.248Z,17.53
2019-06-01T05:53:14.606Z,17.62
2019-06-01T05:55:42.847Z,17.70
2019-06-01T05:58:11.437Z,17.70
2019-06-01T06:00:41.495Z,17.89
2019-06-01T06:03:12.815Z,17.89
2019-06-01T06:05:39.711Z,17.93
2019-06-01T06:08:07.922Z,17.95
2019-06-01T06:10:37.704Z,17.99
2019-06-01T06:13:05.942Z,18.06
2019-06-01T06:15:34.136Z,18.07
2019-06-01T06:18:02.346Z,18.10
2019-06-01T06:20:30.553Z,18.12
2019-06-01T06:22:58.763Z,18.16
2019-06-01T06:25:28.647Z,18.32
2019-06-01T06:27:57.259Z,18.36
2019-06-01T06:30:25.467Z,18.50
2019-06-01T06:32:53.674Z,18.59
2019-06-01T06:35:21.881Z,18.82
2019-06-01T06:37:50.088Z,18.95
2019-06-01T06:40:20.118Z,19.03
2019-06-01T06:42:48.362Z,19.16
2019-06-01T06:45:16.759Z,19.26
2019-06-01T06:47:44.965Z,19.29
2019-06-01T06:50:16.011Z,19.32
2019-06-01T06:52:44.704Z,19.45
2019-06-01T06:55:12.900Z,19.74
2019-06-01T06:57:41.115Z,19.94
2019-06-01T07:00:09.311Z,19.99
2019-06-01T07:02:37.523Z,20.15
2019-06-01T07:05:06.896Z,19.89
2019-06-01T07:07:35.685Z,19.91
2019-06-01T07:10:04.220Z,20.04
2019-06-01T07:12:32.439Z,20.13
2019-06-01T07:15:02.170Z,20.17
2019-06-01T07:17:30.317Z,20.51
2019-06-01T07:19:58.517Z,20.51
2019-06-01T07:22:27.821Z,20.64
2019-06-01T07:24:56.216Z,20.21
2019-06-01T07:27:24.421Z,20.30
2019-06-01T07:29:52.634Z,20.36
2019-06-01T07:32:22.122Z,20.52
2019-06-01T07:34:50.260Z,20.50
2019-06-01T07:37:18.460Z,20.64
2019-06-01T07:39:47.455Z,20.51
2019-06-01T07:42:15.761Z,20.29
2019-06-01T07:44:44.566Z,20.26
2019-06-01T07:47:12.809Z,20.52
2019-06-01T07:49:41.024Z,20.76
2019-06-01T07:52:13.178Z,20.90
2019-06-01T07:54:39.237Z,21.12
2019-06-01T07:57:08.008Z,21.49
2019-06-01T07:59:36.780Z,21.37
2019-06-01T08:02:05.184Z,21.05
2019-06-01T08:04:51.873Z,21.19
2019-06-01T08:07:03.415Z,21.49
2019-06-01T08:09:31.715Z,21.71
2019-06-01T08:12:01.930Z,21.06
2019-06-01T08:14:30.593Z,21.47
2019-06-01T08:16:58.762Z,21.94
2019-06-01T08:19:28.079Z,21.96
2019-06-01T08:21:57.312Z,21.66
2019-06-01T08:24:26.227Z,21.59
2019-06-01T08:26:54.430Z,21.49
2019-06-01T08:29:22.741Z,21.14
2019-06-01T08:31:55.597Z,21.27
2019-06-01T08:34:22.707Z,21.85
2019-06-01T08:36:50.927Z,22.40
2019-06-01T08:39:19.124Z,22.42
2019-06-01T08:41:47.319Z,22.62
2019-06-01T08:44:16.777Z,22.50
2019-06-01T08:46:44.952Z,23.04
2019-06-01T08:49:13.173Z,22.17
2019-06-01T08:51:41.366Z,22.06
2019-06-01T08:54:09.892Z,22.09
2019-06-01T08:56:38.095Z,22.13
2019-06-01T08:59:06.299Z,22.49
2019-06-01T09:01:35.267Z,22.53
2019-06-01T09:04:03.473Z,22.84
2019-06-01T09:06:32.831Z,22.90
2019-06-01T09:09:03.609Z,23.03
2019-06-01T09:11:31.814Z,22.90
2019-06-01T09:14:00.004Z,23.28
2019-06-01T09:16:29.609Z,23.21
2019-06-01T09:18:57.956Z,23.03
2019-06-01T09:21:27.383Z,22.96
2019-06-01T09:23:56.623Z,23.03
2019-06-01T09:26:26.283Z,23.03
2019-06-01T09:28:56.400Z,22.83
2019-06-01T09:31:26.139Z,22.80
2019-06-01T09:33:54.532Z,22.83
2019-06-01T09:36:22.845Z,23.21
2019-06-01T09:38:51.034Z,23.14
2019-06-01T09:41:19.266Z,23.28
2019-06-01T09:43:47.453Z,24.02
2019-06-01T09:46:15.743Z,24.18
2019-06-01T09:48:43.931Z,24.15
2019-06-01T09:51:12.138Z,24.32
2019-06-01T09:53:40.996Z,24.50
2019-06-01T09:56:09.202Z,24.48
2019-06-01T09:58:38.751Z,24.27
2019-06-01T10:01:07.515Z,24.08
2019-06-01T10:03:36.452Z,23.82
2019-06-01T10:06:04.801Z,23.29
2019-06-01T10:08:34.330Z,23.76
2019-06-01T10:11:02.744Z,23.22
2019-06-01T10:13:32.931Z,23.40
2019-06-01T10:16:00.869Z,23.42
2019-06-01T10:18:29.635Z,23.80
2019-06-01T10:20:59.041Z,24.41
2019-06-01T10:23:27.245Z,24.81
2019-06-01T10:25:56.124Z,24.52
2019-06-01T10:28:24.313Z,24.62
2019-06-01T10:30:52.520Z,24.52
2019-06-01T10:33:20.715Z,24.02
2019-06-01T10:35:49.240Z,23.29
2019-06-01T10:38:17.428Z,23.44
2019-06-01T10:40:46.406Z,24.08
2019-06-01T10:43:14.603Z,24.44
2019-06-01T10:45:42.810Z,24.52
2019-06-01T10:48:11.002Z,24.67
2019-06-01T10:50:40.626Z,24.63
2019-06-01T10:53:08.982Z,24.85
2019-06-01T10:55:38.382Z,25.26
2019-06-01T10:58:06.834Z,25.73
2019-06-01T11:00:42.127Z,25.74
2019-06-01T11:03:07.345Z,25.21
2019-06-01T11:05:35.109Z,25.57
2019-06-01T11:08:03.999Z,25.06
2019-06-01T11:10:34.846Z,25.21
2019-06-01T11:13:03.151Z,25.07
2019-06-01T11:15:32.972Z,25.57
2019-06-01T11:18:01.302Z,25.65
2019-06-01T11:20:29.503Z,25.30
2019-06-01T11:22:57.797Z,25.61
2019-06-01T11:25:27.574Z,25.97
2019-06-01T11:27:55.772Z,25.84
2019-06-01T11:30:23.977Z,26.35
2019-06-01T11:32:52.171Z,25.81
2019-06-01T11:35:20.373Z,25.76
2019-06-01T11:37:48.588Z,25.55
2019-06-01T11:40:16.788Z,25.73
2019-06-01T11:42:45.210Z,25.92
2019-06-01T11:45:13.469Z,25.88
2019-06-01T11:47:42.948Z,25.69
2019-06-01T11:50:11.742Z,26.06
2019-06-01T11:52:41.055Z,25.90
2019-06-01T11:55:09.420Z,26.15
2019-06-01T11:57:37.683Z,26.57
2019-06-01T12:00:12.482Z,26.78
2019-06-01T12:02:41.816Z,26.46
2019-06-01T12:05:10.061Z,26.72
2019-06-01T12:07:38.276Z,27.51
2019-06-01T12:10:07.097Z,26.94
2019-06-01T12:12:36.004Z,26.76
2019-06-01T12:15:05.615Z,26.74
2019-06-01T12:17:33.822Z,26.24
2019-06-01T12:20:02.334Z,26.05
2019-06-01T12:22:31.353Z,26.00
2019-06-01T12:24:59.550Z,26.34
2019-06-01T12:27:28.022Z,26.87
2019-06-01T12:29:56.241Z,26.95
2019-06-01T12:32:24.442Z,27.02
2019-06-01T12:34:52.628Z,26.83
2019-06-01T12:37:39.794Z,27.32
2019-06-01T12:39:54.284Z,27.05
2019-06-01T12:42:21.751Z,27.28
2019-06-01T12:44:49.946Z,27.25
2019-06-01T12:47:18.152Z,26.61
2019-06-01T12:49:48.203Z,26.09
2019-06-01T12:52:16.501Z,26.49
2019-06-01T12:54:44.722Z,27.08
2019-06-01T12:57:14.025Z,27.36
2019-06-01T12:59:43.178Z,27.61
2019-06-01T13:02:11.409Z,27.52
2019-06-01T13:04:40.605Z,27.90
2019-06-01T13:07:08.904Z,27.94
2019-06-01T13:09:37.580Z,28.11
2019-06-01T13:12:05.769Z,27.91
2019-06-01T13:14:33.958Z,27.63
2019-06-01T13:17:07.639Z,27.58
2019-06-01T13:19:31.458Z,27.56
2019-06-01T13:22:00.384Z,27.83
2019-06-01T13:24:28.576Z,27.94
2019-06-01T13:26:56.793Z,28.04
2019-06-01T13:29:25.322Z,27.81
2019-06-01T13:31:53.524Z,27.66
2019-06-01T13:34:23.341Z,28.04
2019-06-01T13:36:52.938Z,28.41
2019-06-01T13:39:21.881Z,28.42
2019-06-01T13:41:51.533Z,27.32
2019-06-01T13:44:20.638Z,27.54
2019-06-01T13:46:50.082Z,28.11
2019-06-01T13:49:18.904Z,28.11
2019-06-01T13:51:47.956Z,28.42
2019-06-01T13:54:16.206Z,27.85
2019-06-01T13:56:44.740Z,27.69
2019-06-01T13:59:12.979Z,27.94
2019-06-01T14:01:41.176Z,28.13
2019-06-01T14:04:09.380Z,28.58
2019-06-01T14:06:37.594Z,28.25
2019-06-01T14:09:07.425Z,28.94
2019-06-01T14:11:35.623Z,28.13
2019-06-01T14:14:04.469Z,28.13
2019-06-01T14:16:32.666Z,28.31
2019-06-01T14:19:01.812Z,28.25
2019-06-01T14:21:30.277Z,28.21
2019-06-01T14:23:59.259Z,28.52
2019-06-01T14:26:27.457Z,28.62
2019-06-01T14:28:56.276Z,28.37
2019-06-01T14:31:24.432Z,28.20
2019-06-01T14:33:52.658Z,27.98
2019-06-01T14:36:20.834Z,28.09
2019-06-01T14:38:52.629Z,27.99
2019-06-01T14:41:18.309Z,28.40
2019-06-01T14:43:47.031Z,28.20
2019-06-01T14:46:16.789Z,28.03
2019-06-01T14:48:44.994Z,28.47
2019-06-01T14:51:13.194Z,28.52
2019-06-01T14:53:42.165Z,29.06
2019-06-01T14:56:10.378Z,28.51
2019-06-01T14:58:39.340Z,28.21
2019-06-01T15:01:08.103Z,28.27
2019-06-01T15:03:36.584Z,27.87
2019-06-01T15:06:04.747Z,28.27
2019-06-01T15:08:32.954Z,28.36
2019-06-01T15:11:01.919Z,28.94
2019-06-01T15:13:31.702Z,27.83
2019-06-01T15:15:59.893Z,28.06
2019-06-01T15:18:28.670Z,28.31
2019-06-01T15:20:57.930Z,28.22
2019-06-01T15:23:26.153Z,27.78
2019-06-01T15:25:54.639Z,27.67
2019-06-01T15:28:22.832Z,27.61
2019-06-01T15:30:51.021Z,27.53
2019-06-01T15:33:19.792Z,27.10
2019-06-01T15:35:47.989Z,26.58
2019-06-01T15:38:16.194Z,26.83
2019-06-01T15:40:44.396Z,27.03
2019-06-01T15:43:12.622Z,27.15
2019-06-01T15:45:41.417Z,26.86
2019-06-01T15:48:10.583Z,26.70
2019-06-01T15:50:38.875Z,26.83
2019-06-01T15:53:07.537Z,26.30
2019-06-01T15:55:35.741Z,26.75
2019-06-01T15:58:03.964Z,26.96
2019-06-01T16:00:32.165Z,27.41
2019-06-01T16:03:01.174Z,26.92
2019-06-01T16:05:30.031Z,27.15
2019-06-01T16:07:59.315Z,26.64
2019-06-01T16:10:27.672Z,26.21
2019-06-01T16:12:55.871Z,26.28
2019-06-01T16:15:24.070Z,26.42
2019-06-01T16:17:53.614Z,26.41
2019-06-01T16:20:21.863Z,26.58
2019-06-01T16:22:50.056Z,26.21
2019-06-01T16:25:18.624Z,26.17
2019-06-01T16:27:46.818Z,25.73
2019-06-01T16:30:15.021Z,25.68
2019-06-01T16:32:44.694Z,25.42
2019-06-01T16:35:12.894Z,25.17
2019-06-01T16:37:41.092Z,24.87
2019-06-01T16:40:10.605Z,24.65
2019-06-01T16:42:39.175Z,24.28
2019-06-01T16:45:08.450Z,23.73
2019-06-01T16:47:36.905Z,24.22
2019-06-01T16:50:07.010Z,24.22
2019-06-01T16:52:34.560Z,24.11
2019-06-01T16:55:02.850Z,24.31
2019-06-01T16:57:31.091Z,24.36
2019-06-01T17:00:00.690Z,24.15
2019-06-01T17:02:29.642Z,24.25
2019-06-01T17:04:58.563Z,24.14
2019-06-01T17:07:27.387Z,24.04
2019-06-01T17:09:56.664Z,24.13
2019-06-01T17:12:24.885Z,23.50
2019-06-01T17:14:53.069Z,23.50
2019-06-01T17:17:21.927Z,23.61
2019-06-01T17:19:50.452Z,23.38
2019-06-01T17:22:19.216Z,23.19
2019-06-01T17:24:47.729Z,22.86
2019-06-01T17:27:15.935Z,22.59
2019-06-01T17:29:44.139Z,22.52
2019-06-01T17:32:23.627Z,22.45
2019-06-01T17:34:42.842Z,22.06
2019-06-01T17:37:11.030Z,21.84
2019-06-01T17:39:39.245Z,21.67
2019-06-01T17:42:08.682Z,21.56
2019-06-01T17:44:36.886Z,21.71
2019-06-01T17:47:06.183Z,21.66
2019-06-01T17:49:34.569Z,21.43
2019-06-01T17:52:03.716Z,21.22
2019-06-01T17:54:32.032Z,21.28
2019-06-01T17:57:01.026Z,21.27
2019-06-01T17:59:29.318Z,21.06
2019-06-01T18:01:57.563Z,20.92
2019-06-01T18:04:25.762Z,20.98
2019-06-01T18:06:54.042Z,20.78
2019-06-01T18:09:22.238Z,20.51
2019-06-01T18:11:50.435Z,20.51
2019-06-01T18:14:18.631Z,20.40
2019-06-01T18:16:46.842Z,20.39
2019-06-01T18:19:15.030Z,20.38
2019-06-01T18:21:44.201Z,20.43
2019-06-01T18:24:12.742Z,20.27
2019-06-01T18:26:41.076Z,20.27
2019-06-01T18:29:09.273Z,20.40
2019-06-01T18:31:37.779Z,20.27
2019-06-01T18:34:05.962Z,20.10
2019-06-01T18:36:34.174Z,20.10
2019-06-01T18:39:03.368Z,20.03
2019-06-01T18:41:31.625Z,19.92
2019-06-01T18:44:00.282Z,20.08
2019-06-01T18:46:28.489Z,19.99
2019-06-01T18:48:56.689Z,19.86
2019-06-01T18:51:24.900Z,19.91
2019-06-01T18:53:53.099Z,19.83
2019-06-01T18:56:22.831Z,19.88
2019-06-01T18:58:51.020Z,19.72
2019-06-01T19:01:21.070Z,19.61
2019-06-01T19:03:49.155Z,19.53
2019-06-01T19:06:17.365Z,19.55
2019-06-01T19:08:45.648Z,19.41
2019-06-01T19:11:29.386Z,19.35
2019-06-01T19:13:43.768Z,19.33
2019-06-01T19:16:12.229Z,19.35
2019-06-01T19:18:40.541Z,19.51
2019-06-01T19:21:08.749Z,19.44
2019-06-01T19:23:37.507Z,19.32
2019-06-01T19:26:10.162Z,19.20
2019-06-01T19:28:35.637Z,19.26
2019-06-01T19:31:03.836Z,19.13
2019-06-01T19:33:32.032Z,18.96
2019-06-01T19:36:01.009Z,19.12
2019-06-01T19:38:29.196Z,19.10
2019-06-01T19:40:57.406Z,19.14
2019-06-01T19:43:25.607Z,19.06
2019-06-01T19:45:53.792Z,19.14
2019-06-01T19:48:22.009Z,19.09
2019-06-01T19:50:50.671Z,18.94
2019-06-01T19:53:19.026Z,18.78
2019-06-01T19:55:47.242Z,18.66
2019-06-01T19:58:16.186Z,18.63
2019-06-01T20:00:45.157Z,18.71
2019-06-01T20:03:14.762Z,18.83
2019-06-01T20:05:43.954Z,18.93
2019-06-01T20:08:12.395Z,18.91
2019-06-01T20:10:40.621Z,18.91
2019-06-01T20:13:08.827Z,18.81
2019-06-01T20:15:37.023Z,18.81
2019-06-01T20:18:05.225Z,18.88
2019-06-01T20:20:34.891Z,18.76
2019-06-01T20:23:03.102Z,18.72
2019-06-01T20:25:31.299Z,18.75
2019-06-01T20:27:59.510Z,18.75
2019-06-01T20:30:27.701Z,18.75
2019-06-01T20:32:55.901Z,18.64
2019-06-01T20:35:24.102Z,18.64
2019-06-01T20:37:52.876Z,18.45
2019-06-01T20:40:22.509Z,18.45
2019-06-01T20:42:51.020Z,18.55
2019-06-01T20:45:20.866Z,18.45
2019-06-01T20:47:49.134Z,18.39
2019-06-01T20:50:18.576Z,18.61
2019-06-01T20:52:46.914Z,18.72
2019-06-01T20:55:15.281Z,18.65
2019-06-01T20:57:43.465Z,18.60
2019-06-01T21:00:11.654Z,18.60
2019-06-01T21:02:39.864Z,18.60
2019-06-01T21:05:08.060Z,18.50
2019-06-01T21:07:36.270Z,18.51
2019-06-01T21:10:07.556Z,18.51
2019-06-01T21:12:44.611Z,18.59
2019-06-01T21:15:06.613Z,18.59
2019-06-01T21:17:34.820Z,18.57
2019-06-01T21:20:05.160Z,18.48
2019-06-01T21:22:32.748Z,18.47
2019-06-01T21:25:02.518Z,18.39
2019-06-01T21:27:30.938Z,18.38
2019-06-01T21:29:59.224Z,18.42
2019-06-01T21:32:27.728Z,18.35
2019-06-01T21:34:55.925Z,18.25
2019-06-01T21:37:24.128Z,18.32
2019-06-01T21:39:52.326Z,18.41
2019-06-01T21:42:21.742Z,18.41
2019-06-01T21:44:49.919Z,18.40
2019-06-01T21:47:18.161Z,18.39
2019-06-01T21:49:46.936Z,18.28
2019-06-01T21:52:15.817Z,18.19
2019-06-01T21:54:44.765Z,18.19
2019-06-01T21:57:12.960Z,18.31
2019-06-01T21:59:42.634Z,18.37
2019-06-01T22:02:11.600Z,18.29
2019-06-01T22:04:39.802Z,18.26
2019-06-01T22:07:08.008Z,18.33
2019-06-01T22:09:36.212Z,18.33
2019-06-01T22:12:04.399Z,18.37
2019-06-01T22:14:32.608Z,18.31
2019-06-01T22:17:00.802Z,18.34
2019-06-01T22:19:29.783Z,18.32
2019-06-01T22:21:57.964Z,17.97
2019-06-01T22:24:26.174Z,17.97
2019-06-01T22:26:54.472Z,17.55
2019-06-01T22:29:22.679Z,17.33
2019-06-01T22:31:50.874Z,17.36
2019-06-01T22:34:19.083Z,17.58
2019-06-01T22:36:47.280Z,17.58
2019-06-01T22:39:15.589Z,17.59
2019-06-01T22:41:43.776Z,17.59
2019-06-01T22:44:11.979Z,17.47
2019-06-01T22:46:40.170Z,17.50
2019-06-01T22:49:08.368Z,17.70
2019-06-01T22:51:36.562Z,17.70
2019-06-01T22:54:04.939Z,17.78
2019-06-01T22:56:33.133Z,17.78
2019-06-01T22:59:01.340Z,17.34
2019-06-01T23:01:29.537Z,17.34
2019-06-01T23:03:57.991Z,17.60
2019-06-01T23:06:27.026Z,17.80
2019-06-01T23:08:55.264Z,18.07
2019-06-01T23:11:25.143Z,18.07
2019-06-01T23:13:54.000Z,18.19
2019-06-01T23:16:23.655Z,18.24
2019-06-01T23:18:52.451Z,17.99
2019-06-01T23:21:21.836Z,17.83
2019-06-01T23:23:49.989Z,17.83
2019-06-01T23:26:18.177Z,17.37
2019-06-01T23:28:46.375Z,17.37
2019-06-01T23:31:14.572Z,17.42
2019-06-01T23:33:42.805Z,17.49
2019-06-01T23:36:10.984Z,17.11
2019-06-01T23:38:39.190Z,17.11
2019-06-01T23:41:07.388Z,17.11
2019-06-01T23:43:37.148Z,17.18
2019-06-01T23:46:07.494Z,17.05
2019-06-01T23:48:35.051Z,17.07
2019-06-01T23:51:03.197Z,17.10
2019-06-01T23:53:31.633Z,17.31
2019-06-01T23:55:59.968Z,17.46
2019-06-01T23:58:28.169Z,17.51
